createdAt,value
2019-05-13T00:01:54.053Z,64.40
2019-05-13T00:04:24.213Z,64.70
2019-05-13T00:06:55.163Z,64.80
2019-05-13T00:09:24.479Z,65.00
2019-05-13T00:11:55.145Z,65.10
2019-05-13T00:14:24.205Z,65.30
2019-05-13T00:16:53.810Z,65.50
2019-05-13T00:19:23.419Z,65.80
2019-05-13T00:21:54.465Z,66.00
2019-05-13T00:24:24.299Z,66.10
2019-05-13T00:26:53.460Z,66.20
2019-05-13T00:29:23.436Z,66.40
2019-05-13T00:31:54.023Z,66.50
2019-05-13T00:34:24.362Z,66.60
2019-05-13T00:37:07.362Z,66.80
2019-05-13T00:39:24.687Z,66.90
2019-05-13T00:41:53.781Z,67.00
2019-05-13T00:44:24.443Z,67.10
2019-05-13T00:46:53.884Z,67.40
2019-05-13T00:49:23.872Z,67.60
2019-05-13T00:51:53.446Z,67.80
2019-05-13T00:54:23.672Z,68.00
2019-05-13T00:56:54.775Z,68.00
2019-05-13T00:59:44.325Z,68.30
2019-05-13T01:02:13.940Z,68.40
2019-05-13T01:04:44.217Z,68.50
2019-05-13T01:07:25.289Z,68.50
2019-05-13T01:09:44.378Z,68.70
2019-05-13T01:12:13.464Z,68.90
2019-05-13T01:14:43.237Z,69.10
2019-05-13T01:17:14.173Z,69.20
2019-05-13T01:19:43.387Z,69.20
2019-05-13T01:22:13.478Z,69.30
2019-05-13T01:24:44.187Z,69.50
2019-05-13T01:27:13.941Z,69.60
2019-05-13T01:29:43.602Z,69.60
2019-05-13T01:32:14.467Z,69.70
2019-05-13T01:34:44.321Z,69.90
2019-05-13T01:37:13.407Z,69.90
2019-05-13T01:39:43.736Z,70.00
2019-05-13T01:42:13.751Z,70.20
2019-05-13T01:44:43.796Z,70.90
2019-05-13T01:47:13.426Z,70.20
2019-05-13T01:49:44.021Z,70.40
2019-05-13T01:52:13.715Z,70.50
2019-05-13T01:54:44.208Z,70.50
2019-05-13T01:57:14.538Z,70.70
2019-05-13T01:59:43.668Z,70.80
2019-05-13T02:02:13.793Z,70.90
2019-05-13T02:04:43.870Z,71.10
2019-05-13T02:07:14.385Z,71.20
2019-05-13T02:09:44.290Z,71.40
2019-05-13T02:12:13.548Z,71.40
2019-05-13T02:14:44.367Z,71.60
2019-05-13T02:17:14.617Z,71.60
2019-05-13T02:19:44.255Z,71.80
2019-05-13T02:22:14.576Z,71.80
2019-05-13T02:24:44.668Z,71.80
2019-05-13T02:27:14.258Z,71.90
2019-05-13T02:29:43.700Z,71.90
2019-05-13T02:32:13.807Z,72.00
2019-05-13T02:35:02.927Z,72.00
2019-05-13T02:37:34.223Z,72.10
2019-05-13T02:40:03.783Z,72.20
2019-05-13T02:42:33.115Z,72.20
2019-05-13T02:45:03.717Z,72.40
2019-05-13T02:47:33.194Z,72.50
2019-05-13T02:50:05.098Z,72.60
2019-05-13T02:52:33.612Z,72.70
2019-05-13T02:55:03.954Z,72.80
2019-05-13T02:57:33.244Z,72.80
2019-05-13T03:00:04.165Z,72.80
2019-05-13T03:02:33.002Z,72.90
2019-05-13T03:05:03.281Z,73.10
2019-05-13T03:07:33.380Z,72.90
2019-05-13T03:10:04.104Z,72.90
2019-05-13T03:12:33.555Z,73.00
2019-05-13T03:15:03.100Z,73.00
2019-05-13T03:17:38.248Z,73.10
2019-05-13T03:20:11.936Z,73.10
2019-05-13T03:22:38.102Z,73.20
2019-05-13T03:25:07.166Z,73.20
2019-05-13T03:27:36.186Z,73.30
2019-05-13T03:30:05.315Z,73.40
2019-05-13T03:32:42.141Z,73.50
2019-05-13T03:35:08.072Z,73.50
2019-05-13T03:37:36.498Z,73.60
2019-05-13T03:40:05.577Z,73.60
2019-05-13T03:42:34.601Z,73.70
2019-05-13T03:45:03.792Z,73.70
2019-05-13T03:47:33.090Z,73.80
2019-05-13T03:50:03.557Z,73.90
2019-05-13T03:52:33.863Z,73.90
2019-05-13T03:55:03.389Z,73.80
2019-05-13T03:57:33.702Z,73.90
2019-05-13T04:00:03.807Z,74.00
2019-05-13T04:02:32.893Z,74.00
2019-05-13T04:05:04.043Z,74.10
2019-05-13T04:07:32.769Z,74.20
2019-05-13T04:10:03.441Z,74.30
2019-05-13T04:12:33.300Z,74.40
2019-05-13T04:15:23.559Z,74.40
2019-05-13T04:17:53.307Z,74.50
2019-05-13T04:20:23.522Z,74.50
2019-05-13T04:22:53.275Z,74.60
2019-05-13T04:25:23.387Z,74.70
2019-05-13T04:27:52.602Z,74.90
2019-05-13T04:30:22.620Z,75.00
2019-05-13T04:32:53.546Z,75.00
2019-05-13T04:35:23.732Z,75.10
2019-05-13T04:37:53.144Z,75.10
2019-05-13T04:40:23.435Z,75.20
2019-05-13T04:42:53.842Z,75.20
2019-05-13T04:45:24.229Z,75.40
2019-05-13T04:47:53.418Z,75.40
2019-05-13T04:50:23.029Z,75.50
2019-05-13T04:52:52.692Z,75.60
2019-05-13T04:55:23.205Z,75.70
2019-05-13T04:57:53.473Z,76.10
2019-05-13T05:01:09.157Z,75.80
2019-05-13T05:03:48.048Z,75.90
2019-05-13T05:06:45.001Z,75.90
2019-05-13T05:10:21.320Z,75.90
2019-05-13T05:13:17.309Z,75.90
2019-05-13T05:16:32.685Z,75.80
2019-05-13T05:19:46.684Z,75.80
2019-05-13T05:22:51.339Z,75.80
2019-05-13T05:25:52.179Z,75.80
2019-05-13T05:29:14.755Z,75.80
2019-05-13T05:32:01.340Z,75.70
2019-05-13T05:35:05.938Z,75.50
2019-05-13T05:38:17.107Z,75.50
2019-05-13T05:40:47.268Z,75.30
2019-05-13T05:43:16.327Z,75.30
2019-05-13T05:45:45.357Z,75.30
2019-05-13T05:48:17.015Z,75.40
2019-05-13T05:50:46.907Z,75.50
2019-05-13T05:53:15.969Z,75.40
2019-05-13T05:55:45.052Z,75.50
2019-05-13T05:58:14.082Z,75.50
2019-05-13T06:00:43.187Z,75.60
2019-05-13T06:03:13.863Z,75.60
2019-05-13T06:05:43.137Z,75.60
2019-05-13T06:08:12.192Z,75.50
2019-05-13T06:10:49.103Z,75.40
2019-05-13T06:13:12.406Z,75.30
2019-05-13T06:15:42.087Z,75.20
2019-05-13T06:18:11.768Z,74.90
2019-05-13T06:20:41.845Z,74.80
2019-05-13T06:23:11.572Z,74.60
2019-05-13T06:25:42.754Z,74.50
2019-05-13T06:28:12.383Z,74.20
2019-05-13T06:30:41.700Z,73.90
2019-05-13T06:33:12.025Z,73.70
2019-05-13T06:35:44.802Z,73.40
2019-05-13T06:38:13.258Z,73.20
2019-05-13T06:40:42.550Z,72.80
2019-05-13T06:43:12.153Z,72.60
2019-05-13T06:45:42.064Z,72.30
2019-05-13T06:48:11.837Z,72.10
2019-05-13T06:50:41.626Z,71.70
2019-05-13T06:53:12.746Z,71.40
2019-05-13T06:55:41.933Z,71.20
2019-05-13T06:58:11.506Z,70.90
2019-05-13T07:00:42.711Z,70.50
2019-05-13T07:03:12.559Z,70.20
2019-05-13T07:05:42.441Z,70.00
2019-05-13T07:08:12.105Z,69.60
2019-05-13T07:10:41.602Z,69.30
2019-05-13T07:13:11.504Z,69.00
2019-05-13T07:15:41.608Z,68.70
2019-05-13T07:18:11.761Z,68.40
2019-05-13T07:20:42.640Z,68.20
2019-05-13T07:23:12.256Z,67.90
2019-05-13T07:25:42.945Z,67.60
2019-05-13T07:28:12.679Z,67.20
2019-05-13T07:30:43.103Z,66.80
2019-05-13T07:33:12.791Z,66.50
2019-05-13T07:35:44.841Z,66.10
2019-05-13T07:38:14.026Z,65.60
2019-05-13T07:40:42.987Z,64.90
2019-05-13T07:43:12.553Z,64.40
2019-05-13T07:45:42.328Z,63.80
2019-05-13T07:48:20.761Z,63.30
2019-05-13T07:50:53.338Z,62.80
2019-05-13T07:53:18.801Z,62.30
2019-05-13T07:55:43.794Z,61.80
2019-05-13T07:58:12.818Z,61.00
2019-05-13T08:00:42.122Z,60.20
2019-05-13T08:03:12.354Z,59.20
2019-05-13T08:05:42.000Z,58.00
2019-05-13T08:08:11.791Z,56.50
2019-05-13T08:10:41.490Z,55.30
2019-05-13T08:13:11.949Z,54.80
2019-05-13T08:15:44.327Z,54.50
2019-05-13T08:18:13.478Z,54.30
2019-05-13T08:20:42.565Z,54.30
2019-05-13T08:23:12.214Z,52.10
2019-05-13T08:25:42.311Z,49.00
2019-05-13T08:28:12.456Z,46.40
2019-05-13T08:30:42.915Z,43.90
2019-05-13T08:33:12.728Z,41.80
2019-05-13T08:35:46.730Z,40.20
2019-05-13T08:38:12.725Z,38.70
2019-05-13T08:40:42.517Z,38.10
2019-05-13T08:43:12.211Z,36.80
2019-05-13T08:45:42.108Z,35.70
2019-05-13T08:48:12.672Z,34.80
2019-05-13T08:50:42.405Z,34.00
2019-05-13T08:53:12.266Z,33.10
2019-05-13T08:55:42.641Z,32.60
2019-05-13T08:58:12.701Z,32.00
2019-05-13T09:00:53.130Z,31.80
2019-05-13T09:03:23.353Z,31.50
2019-05-13T09:05:53.727Z,31.30
2019-05-13T09:08:23.112Z,31.10
2019-05-13T09:10:56.316Z,30.90
2019-05-13T09:13:23.275Z,30.80
2019-05-13T09:15:52.237Z,30.90
2019-05-13T09:18:22.763Z,30.70
2019-05-13T09:20:52.301Z,30.80
2019-05-13T09:23:22.231Z,30.80
2019-05-13T09:25:52.312Z,30.70
2019-05-13T09:28:22.190Z,30.50
2019-05-13T09:33:22.186Z,30.50
2019-05-13T09:35:53.572Z,30.60
2019-05-13T09:38:22.312Z,30.80
2019-05-13T09:40:52.960Z,30.80
2019-05-13T09:43:22.471Z,30.90
2019-05-13T09:45:52.237Z,31.30
2019-05-13T09:48:22.523Z,31.60
2019-05-13T09:50:52.023Z,31.70
2019-05-13T09:53:22.311Z,32.00
2019-05-13T09:55:52.376Z,32.30
2019-05-13T09:58:22.319Z,32.40
2019-05-13T10:00:52.832Z,32.70
2019-05-13T10:03:28.896Z,33.10
2019-05-13T10:05:52.843Z,33.30
2019-05-13T10:08:22.184Z,33.30
2019-05-13T10:10:52.740Z,33.20
2019-05-13T10:13:23.171Z,33.10
2019-05-13T10:15:52.626Z,33.10
2019-05-13T10:18:22.258Z,33.10
2019-05-13T10:20:58.684Z,33.30
2019-05-13T10:23:50.754Z,33.40
2019-05-13T10:26:22.007Z,33.60
2019-05-13T10:28:50.593Z,33.70
2019-05-13T10:31:58.440Z,33.80
2019-05-13T10:34:27.386Z,34.10
2019-05-13T10:36:56.433Z,34.20
2019-05-13T10:42:03.583Z,34.30
2019-05-13T10:44:31.990Z,34.20
2019-05-13T10:49:32.752Z,33.80
2019-05-13T10:57:48.094Z,33.60
2019-05-13T11:00:17.209Z,33.80
2019-05-13T11:02:46.264Z,34.00
2019-05-13T11:05:15.263Z,33.70
2019-05-13T11:07:44.294Z,34.00
2019-05-13T11:10:13.868Z,34.20
2019-05-13T11:12:42.946Z,34.60
2019-05-13T11:15:12.000Z,34.40
2019-05-13T11:17:42.715Z,34.40
2019-05-13T11:20:12.572Z,34.20
2019-05-13T11:22:43.549Z,33.90
2019-05-13T11:25:12.806Z,33.80
2019-05-13T11:27:42.272Z,33.60
2019-05-13T11:30:11.607Z,33.60
2019-05-13T11:32:42.726Z,33.60
2019-05-13T11:35:12.927Z,33.70
2019-05-13T11:37:43.500Z,33.40
2019-05-13T11:40:13.037Z,33.20
2019-05-13T11:42:42.314Z,33.00
2019-05-13T11:45:11.831Z,32.90
2019-05-13T11:47:41.568Z,32.80
2019-05-13T11:50:11.563Z,32.40
2019-05-13T11:52:42.631Z,32.00
2019-05-13T11:57:44.460Z,32.50
2019-05-13T12:00:13.699Z,32.50
2019-05-13T12:02:50.270Z,32.20
2019-05-13T12:05:13.582Z,31.90
2019-05-13T12:07:42.613Z,32.10
2019-05-13T12:10:12.505Z,32.40
2019-05-13T12:12:43.922Z,32.40
2019-05-13T12:15:44.538Z,32.50
2019-05-13T12:17:43.371Z,32.20
2019-05-13T12:20:13.189Z,32.20
2019-05-13T12:22:43.459Z,32.50
2019-05-13T12:25:13.853Z,32.90
2019-05-13T12:27:43.318Z,33.20
2019-05-13T12:30:12.660Z,33.40
2019-05-13T12:32:43.696Z,33.70
2019-05-13T12:35:13.427Z,33.80
2019-05-13T12:37:42.953Z,33.80
2019-05-13T12:40:12.014Z,33.80
2019-05-13T12:42:46.237Z,33.70
2019-05-13T12:45:14.377Z,33.90
2019-05-13T12:47:43.338Z,34.20
2019-05-13T12:50:13.541Z,34.50
2019-05-13T12:52:44.098Z,34.70
2019-05-13T12:55:14.052Z,34.80
2019-05-13T12:57:43.415Z,35.00
2019-05-13T13:00:13.427Z,35.30
2019-05-13T13:02:49.967Z,35.40
2019-05-13T13:05:19.949Z,35.40
2019-05-13T13:07:43.972Z,36.00
2019-05-13T13:10:14.725Z,35.30
2019-05-13T13:12:45.378Z,35.30
2019-05-13T13:17:45.251Z,35.20
2019-05-13T13:20:15.416Z,35.00
2019-05-13T13:22:44.858Z,35.10
2019-05-13T13:25:13.917Z,35.20
2019-05-13T13:28:09.819Z,35.10
2019-05-13T13:30:13.734Z,35.20
2019-05-13T13:32:45.223Z,35.30
2019-05-13T13:35:14.850Z,35.30
2019-05-13T13:37:46.011Z,35.40
2019-05-13T13:40:23.134Z,35.50
2019-05-13T13:42:45.626Z,35.30
2019-05-13T13:45:15.083Z,35.20
2019-05-13T13:48:02.430Z,35.00
2019-05-13T13:50:24.631Z,35.00
2019-05-13T13:52:52.941Z,34.90
2019-05-13T13:55:25.786Z,34.80
2019-05-13T13:57:56.684Z,34.60
2019-05-13T14:00:38.191Z,34.30
2019-05-13T14:02:54.827Z,33.90
2019-05-13T14:05:24.985Z,33.90
2019-05-13T14:06:30.769Z,32.30
2019-05-13T14:06:50.059Z,35.30
2019-05-13T14:07:03.257Z,30.40
2019-05-13T14:07:54.218Z,33.90
2019-05-13T14:10:23.317Z,34.00
2019-05-13T14:12:52.634Z,34.20
2019-05-13T14:15:21.720Z,34.20
2019-05-13T14:17:51.666Z,34.30
2019-05-13T14:20:21.969Z,34.40
2019-05-13T14:22:57.279Z,34.50
2019-05-13T14:25:22.450Z,34.60
2019-05-13T14:27:52.673Z,34.70
2019-05-13T14:30:21.901Z,35.10
2019-05-13T14:32:53.594Z,34.70
2019-05-13T14:35:25.172Z,34.90
2019-05-13T14:37:54.245Z,34.80
2019-05-13T14:40:26.161Z,34.80
2019-05-13T14:42:56.456Z,34.60
2019-05-13T14:45:26.426Z,34.50
2019-05-13T14:47:55.486Z,34.50
2019-05-13T14:50:24.618Z,34.50
2019-05-13T14:52:53.799Z,34.60
2019-05-13T14:55:22.906Z,34.40
2019-05-13T14:57:52.589Z,34.40
2019-05-13T15:00:22.230Z,34.30
2019-05-13T15:02:51.911Z,34.20
2019-05-13T15:05:22.005Z,34.00
2019-05-13T15:07:52.827Z,33.90
2019-05-13T15:10:22.000Z,33.90
2019-05-13T15:12:52.355Z,33.80
2019-05-13T15:15:22.393Z,33.80
2019-05-13T15:17:52.014Z,34.00
2019-05-13T15:20:21.778Z,34.20
2019-05-13T15:22:51.856Z,34.20
2019-05-13T15:25:22.040Z,34.50
2019-05-13T15:27:52.758Z,34.50
2019-05-13T15:30:22.174Z,34.40
2019-05-13T15:32:52.529Z,34.60
2019-05-13T15:35:21.832Z,34.60
2019-05-13T15:37:52.276Z,34.80
2019-05-13T15:40:22.030Z,34.90
2019-05-13T15:42:51.777Z,34.90
2019-05-13T15:45:21.422Z,34.80
2019-05-13T15:47:51.586Z,34.90
2019-05-13T15:50:21.460Z,34.90
2019-05-13T15:52:50.663Z,34.80
2019-05-13T15:55:21.388Z,34.50
2019-05-13T15:57:51.792Z,34.20
2019-05-13T16:00:21.926Z,34.20
2019-05-13T16:02:52.244Z,34.20
2019-05-13T16:05:25.368Z,34.00
2019-05-13T16:08:02.777Z,33.80
2019-05-13T16:10:31.724Z,33.50
2019-05-13T16:13:02.291Z,33.20
2019-05-13T16:15:32.090Z,32.90
2019-05-13T16:18:02.523Z,32.70
2019-05-13T16:20:32.203Z,32.30
2019-05-13T16:23:02.392Z,32.10
2019-05-13T16:25:32.142Z,32.20
2019-05-13T16:28:01.449Z,32.00
2019-05-13T16:30:32.167Z,31.90
2019-05-13T16:33:02.885Z,31.90
2019-05-13T16:35:32.256Z,32.20
2019-05-13T16:38:01.848Z,32.10
2019-05-13T16:40:36.349Z,32.10
2019-05-13T16:43:01.889Z,32.10
2019-05-13T16:45:31.531Z,32.20
2019-05-13T16:48:03.820Z,32.40
2019-05-13T16:50:31.511Z,32.60
2019-05-13T16:53:01.891Z,33.10
2019-05-13T16:55:32.733Z,33.50
2019-05-13T16:58:02.113Z,34.00
2019-05-13T17:00:31.723Z,34.40
2019-05-13T17:03:02.303Z,34.80
2019-05-13T17:05:32.749Z,35.00
2019-05-13T17:08:02.213Z,34.90
2019-05-13T17:10:31.690Z,34.80
2019-05-13T17:13:02.990Z,34.80
2019-05-13T17:15:31.631Z,34.80
2019-05-13T17:18:09.149Z,34.80
2019-05-13T17:20:32.130Z,34.80
2019-05-13T17:23:01.925Z,34.90
2019-05-13T17:25:31.130Z,35.00
2019-05-13T17:28:02.836Z,34.90
2019-05-13T17:30:31.983Z,35.10
2019-05-13T17:33:02.232Z,35.20
2019-05-13T17:35:31.400Z,35.20
2019-05-13T17:38:01.880Z,35.20
2019-05-13T17:40:31.537Z,35.40
2019-05-13T17:43:00.523Z,35.50
2019-05-13T17:45:31.303Z,35.40
2019-05-13T17:48:01.124Z,35.60
2019-05-13T17:50:31.509Z,35.80
2019-05-13T17:53:02.216Z,35.90
2019-05-13T17:55:31.265Z,35.90
2019-05-13T17:58:01.451Z,36.00
2019-05-13T18:00:32.294Z,35.90
2019-05-13T18:03:01.879Z,36.60
2019-05-13T18:05:31.491Z,36.00
2019-05-13T18:08:01.878Z,36.00
2019-05-13T18:10:31.775Z,36.10
2019-05-13T18:13:01.741Z,36.20
2019-05-13T18:15:31.367Z,36.50
2019-05-13T18:18:01.436Z,36.80
2019-05-13T18:20:32.148Z,37.00
2019-05-13T18:23:01.745Z,37.40
2019-05-13T18:25:31.780Z,37.50
2019-05-13T18:28:02.154Z,38.30
2019-05-13T18:30:31.746Z,37.90
2019-05-13T18:33:01.358Z,38.00
2019-05-13T18:35:31.482Z,38.20
2019-05-13T18:38:01.383Z,38.50
2019-05-13T18:40:31.520Z,38.80
2019-05-13T18:43:01.937Z,39.10
2019-05-13T18:45:31.036Z,39.40
2019-05-13T18:48:01.704Z,39.70
2019-05-13T18:50:42.581Z,40.10
2019-05-13T18:53:11.655Z,40.10
2019-05-13T18:55:41.626Z,40.30
2019-05-13T18:58:11.730Z,40.40
2019-05-13T19:00:41.653Z,40.40
2019-05-13T19:03:12.416Z,40.50
2019-05-13T19:05:42.217Z,40.50
2019-05-13T19:08:12.351Z,40.50
2019-05-13T19:10:42.318Z,40.60
2019-05-13T19:13:12.376Z,40.70
2019-05-13T19:15:41.598Z,41.40
2019-05-13T19:18:12.215Z,41.30
2019-05-13T19:20:41.934Z,41.50
2019-05-13T19:23:11.818Z,41.80
2019-05-13T19:25:42.693Z,42.00
2019-05-13T19:28:12.042Z,42.20
2019-05-13T19:30:41.318Z,42.50
2019-05-13T19:33:12.112Z,42.70
2019-05-13T19:35:42.588Z,43.00
2019-05-13T19:38:12.214Z,43.30
2019-05-13T19:40:41.983Z,43.70
2019-05-13T19:43:11.734Z,44.00
2019-05-13T19:45:41.646Z,44.30
2019-05-13T19:48:13.701Z,44.60
2019-05-13T19:50:42.783Z,45.00
2019-05-13T19:53:12.217Z,45.20
2019-05-13T19:55:41.634Z,45.50
2019-05-13T19:58:12.389Z,45.90
2019-05-13T20:00:42.427Z,46.00
2019-05-13T20:03:12.013Z,46.30
2019-05-13T20:05:41.652Z,46.50
2019-05-13T20:08:11.089Z,46.70
2019-05-13T20:10:42.275Z,46.90
2019-05-13T20:13:11.265Z,47.10
2019-05-13T20:15:41.285Z,47.30
2019-05-13T20:18:12.480Z,47.50
2019-05-13T20:20:41.527Z,47.60
2019-05-13T20:23:12.051Z,47.90
2019-05-13T20:25:41.769Z,48.20
2019-05-13T20:28:11.568Z,48.50
2019-05-13T20:30:41.844Z,48.70
2019-05-13T20:33:12.022Z,49.00
2019-05-13T20:35:42.020Z,49.30
2019-05-13T20:38:11.654Z,49.50
2019-05-13T20:40:41.353Z,49.80
2019-05-13T20:43:13.723Z,50.20
2019-05-13T20:45:42.819Z,50.40
2019-05-13T20:48:12.108Z,50.70
2019-05-13T20:50:41.405Z,51.00
2019-05-13T20:53:13.368Z,51.20
2019-05-13T20:55:42.518Z,51.50
2019-05-13T20:58:12.780Z,51.80
2019-05-13T21:00:42.336Z,52.10
2019-05-13T21:03:11.826Z,52.30
2019-05-13T21:05:41.707Z,52.50
2019-05-13T21:08:10.778Z,52.70
2019-05-13T21:10:41.997Z,53.10
2019-05-13T21:13:12.217Z,53.30
2019-05-13T21:15:42.568Z,53.50
2019-05-13T21:18:11.678Z,53.80
2019-05-13T21:20:41.064Z,54.00
2019-05-13T21:23:11.260Z,54.20
2019-05-13T21:25:41.884Z,54.40
2019-05-13T21:28:11.467Z,54.60
2019-05-13T21:30:42.036Z,54.80
2019-05-13T21:33:11.991Z,55.00
2019-05-13T21:35:52.909Z,55.30
2019-05-13T21:38:22.402Z,55.40
2019-05-13T21:40:52.245Z,55.70
2019-05-13T21:43:21.714Z,56.60
2019-05-13T21:45:52.358Z,56.10
2019-05-13T21:48:21.867Z,56.40
2019-05-13T21:50:51.602Z,56.40
2019-05-13T21:53:24.167Z,56.70
2019-05-13T21:55:52.121Z,56.70
2019-05-13T21:58:22.317Z,57.00
2019-05-13T22:00:52.112Z,57.20
2019-05-13T22:03:21.428Z,57.40
2019-05-13T22:05:51.480Z,57.70
2019-05-13T22:08:21.617Z,58.60
2019-05-13T22:10:52.515Z,58.10
2019-05-13T22:13:24.975Z,58.20
2019-05-13T22:15:54.049Z,58.30
2019-05-13T22:18:23.125Z,58.60
2019-05-13T22:20:53.689Z,58.70
2019-05-13T22:23:26.202Z,58.90
2019-05-13T22:25:55.253Z,59.10
2019-05-13T22:28:24.285Z,59.40
2019-05-13T22:30:53.371Z,59.40
2019-05-13T22:33:22.433Z,59.60
2019-05-13T22:35:52.307Z,59.80
2019-05-13T22:38:21.522Z,60.00
2019-05-13T22:40:52.110Z,60.20
2019-05-13T22:43:21.323Z,60.40
2019-05-13T22:45:51.123Z,60.60
2019-05-13T22:48:22.298Z,60.80
2019-05-13T22:50:52.158Z,60.50
2019-05-13T22:53:21.269Z,61.10
2019-05-13T22:55:52.084Z,61.30
2019-05-13T22:58:22.567Z,61.50
2019-05-13T23:00:51.880Z,61.80
2019-05-13T23:03:21.009Z,62.00
2019-05-13T23:05:52.060Z,62.30
2019-05-13T23:08:21.710Z,62.40
2019-05-13T23:10:51.527Z,62.60
2019-05-13T23:13:20.620Z,62.80
2019-05-13T23:15:51.503Z,62.90
2019-05-13T23:18:22.143Z,62.90
2019-05-13T23:20:51.605Z,63.10
2019-05-13T23:23:22.164Z,63.20
2019-05-13T23:25:51.434Z,63.40
2019-05-13T23:28:21.659Z,63.50
2019-05-13T23:30:51.234Z,63.70
2019-05-13T23:33:21.946Z,63.90
2019-05-13T23:35:51.059Z,64.10
2019-05-13T23:38:21.419Z,64.30
2019-05-13T23:40:51.631Z,64.50
2019-05-13T23:43:21.739Z,64.60
2019-05-13T23:45:51.253Z,64.80
2019-05-13T23:48:21.580Z,65.10
2019-05-13T23:50:52.039Z,65.00
2019-05-13T23:53:22.999Z,65.10
2019-05-13T23:55:52.275Z,65.10
2019-05-13T23:58:21.809Z,65.20
